sensor_id;sensor_type;location;lat;lon;timestamp;P1;durP1;ratioP1;P2;durP2;ratioP2
69410;SDS011;56604;48.652;9.194;2022-12-16T00:00:22;59.63;;;26.60;;
69410;SDS011;56604;48.652;9.194;2022-12-16T00:02:49;59.30;;;27.17;;
69410;SDS011;56604;48.652;9.194;2022-12-16T00:05:15;68.43;;;32.60;;
69410;SDS011;56604;48.652;9.194;2022-12-16T00:07:41;56.53;;;26.77;;
69410;SDS011;56604;48.652;9.194;2022-12-16T00:10:06;65.30;;;25.80;;
69410;SDS011;56604;48.652;9.194;2022-12-16T00:12:33;104.90;;;43.43;;
69410;SDS011;56604;48.652;9.194;2022-12-16T00:14:58;65.23;;;27.70;;
69410;SDS011;56604;48.652;9.194;2022-12-16T00:17:24;65.67;;;27.97;;
69410;SDS011;56604;48.652;9.194;2022-12-16T00:19:49;52.70;;;24.43;;
69410;SDS011;56604;48.652;9.194;2022-12-16T00:22:15;57.80;;;25.90;;
69410;SDS011;56604;48.652;9.194;2022-12-16T00:24:40;55.10;;;25.40;;
69410;SDS011;56604;48.652;9.194;2022-12-16T00:27:06;76.73;;;30.57;;
69410;SDS011;56604;48.652;9.194;2022-12-16T00:29:31;63.97;;;29.40;;
69410;SDS011;56604;48.652;9.194;2022-12-16T00:31:56;65.70;;;28.03;;
69410;SDS011;56604;48.652;9.194;2022-12-16T00:34:22;55.67;;;26.57;;
69410;SDS011;56604;48.652;9.194;2022-12-16T00:36:47;59.97;;;26.23;;
69410;SDS011;56604;48.652;9.194;2022-12-16T00:39:12;55.57;;;26.20;;
69410;SDS011;56604;48.652;9.194;2022-12-16T00:41:38;61.63;;;27.60;;
69410;SDS011;56604;48.652;9.194;2022-12-16T00:44:03;62.10;;;25.90;;
69410;SDS011;56604;48.652;9.194;2022-12-16T00:46:29;65.97;;;31.53;;
69410;SDS011;56604;48.652;9.194;2022-12-16T00:48:54;52.30;;;24.80;;
69410;SDS011;56604;48.652;9.194;2022-12-16T00:51:19;51.47;;;26.20;;
69410;SDS011;56604;48.652;9.194;2022-12-16T00:53:45;47.37;;;24.13;;
69410;SDS011;56604;48.652;9.194;2022-12-16T00:56:13;56.60;;;27.27;;
69410;SDS011;56604;48.652;9.194;2022-12-16T00:58:39;65.63;;;27.40;;
69410;SDS011;56604;48.652;9.194;2022-12-16T01:01:05;57.33;;;25.13;;
69410;SDS011;56604;48.652;9.194;2022-12-16T01:03:32;55.67;;;25.03;;
69410;SDS011;56604;48.652;9.194;2022-12-16T01:05:57;54.53;;;26.33;;
69410;SDS011;56604;48.652;9.194;2022-12-16T01:08:23;50.67;;;24.97;;
69410;SDS011;56604;48.652;9.194;2022-12-16T01:10:52;59.10;;;26.70;;
69410;SDS011;56604;48.652;9.194;2022-12-16T01:13:19;49.93;;;25.10;;
69410;SDS011;56604;48.652;9.194;2022-12-16T01:15:45;58.20;;;26.70;;
69410;SDS011;56604;48.652;9.194;2022-12-16T01:18:10;54.47;;;25.30;;
69410;SDS011;56604;48.652;9.194;2022-12-16T01:20:35;53.17;;;25.27;;
69410;SDS011;56604;48.652;9.194;2022-12-16T01:23:02;52.23;;;25.47;;
69410;SDS011;56604;48.652;9.194;2022-12-16T01:25:28;59.17;;;26.73;;
69410;SDS011;56604;48.652;9.194;2022-12-16T01:27:53;54.27;;;25.43;;
69410;SDS011;56604;48.652;9.194;2022-12-16T01:30:18;57.93;;;25.50;;
69410;SDS011;56604;48.652;9.194;2022-12-16T01:32:44;63.87;;;27.97;;
69410;SDS011;56604;48.652;9.194;2022-12-16T01:35:09;58.70;;;27.07;;
69410;SDS011;56604;48.652;9.194;2022-12-16T01:37:35;67.77;;;28.30;;
69410;SDS011;56604;48.652;9.194;2022-12-16T01:40:00;55.70;;;27.70;;
69410;SDS011;56604;48.652;9.194;2022-12-16T01:42:26;62.47;;;26.80;;
69410;SDS011;56604;48.652;9.194;2022-12-16T01:44:56;58.10;;;25.67;;
69410;SDS011;56604;48.652;9.194;2022-12-16T01:48:06;62.07;;;25.70;;
69410;SDS011;56604;48.652;9.194;2022-12-16T01:50:43;60.90;;;25.97;;
69410;SDS011;56604;48.652;9.194;2022-12-16T01:53:10;72.93;;;24.80;;
69410;SDS011;56604;48.652;9.194;2022-12-16T01:55:37;54.20;;;24.60;;
69410;SDS011;56604;48.652;9.194;2022-12-16T01:58:11;60.23;;;26.80;;
69410;SDS011;56604;48.652;9.194;2022-12-16T02:00:39;56.97;;;27.40;;
69410;SDS011;56604;48.652;9.194;2022-12-16T02:03:06;53.93;;;25.30;;
69410;SDS011;56604;48.652;9.194;2022-12-16T02:05:33;64.73;;;27.87;;
69410;SDS011;56604;48.652;9.194;2022-12-16T02:08:16;60.17;;;26.17;;
69410;SDS011;56604;48.652;9.194;2022-12-16T02:13:30;56.00;;;24.60;;
69410;SDS011;56604;48.652;9.194;2022-12-16T02:32:40;52.10;;;24.10;;
69410;SDS011;56604;48.652;9.194;2022-12-16T02:35:32;53.40;;;24.53;;
69410;SDS011;56604;48.652;9.194;2022-12-16T02:38:10;56.83;;;24.50;;
69410;SDS011;56604;48.652;9.194;2022-12-16T02:43:39;48.43;;;23.53;;
69410;SDS011;56604;48.652;9.194;2022-12-16T02:46:14;50.80;;;24.70;;
69410;SDS011;56604;48.652;9.194;2022-12-16T02:48:41;61.03;;;26.60;;
69410;SDS011;56604;48.652;9.194;2022-12-16T02:51:06;59.80;;;26.00;;
69410;SDS011;56604;48.652;9.194;2022-12-16T02:53:32;48.47;;;24.20;;
69410;SDS011;56604;48.652;9.194;2022-12-16T03:01:31;50.47;;;24.83;;
69410;SDS011;56604;48.652;9.194;2022-12-16T03:06:44;49.63;;;23.00;;
69410;SDS011;56604;48.652;9.194;2022-12-16T03:09:14;49.93;;;23.10;;
69410;SDS011;56604;48.652;9.194;2022-12-16T03:11:44;48.47;;;22.90;;
69410;SDS011;56604;48.652;9.194;2022-12-16T03:14:14;51.53;;;23.03;;
69410;SDS011;56604;48.652;9.194;2022-12-16T03:16:42;49.40;;;22.90;;
69410;SDS011;56604;48.652;9.194;2022-12-16T03:19:10;52.50;;;23.53;;
69410;SDS011;56604;48.652;9.194;2022-12-16T03:21:38;48.13;;;22.47;;
69410;SDS011;56604;48.652;9.194;2022-12-16T03:24:11;51.70;;;23.03;;
69410;SDS011;56604;48.652;9.194;2022-12-16T03:26:53;41.83;;;21.80;;
69410;SDS011;56604;48.652;9.194;2022-12-16T03:32:04;45.90;;;22.33;;
69410;SDS011;56604;48.652;9.194;2022-12-16T03:37:06;45.23;;;21.20;;
69410;SDS011;56604;48.652;9.194;2022-12-16T03:39:38;42.87;;;20.73;;
69410;SDS011;56604;48.652;9.194;2022-12-16T03:42:13;45.70;;;21.03;;
69410;SDS011;56604;48.652;9.194;2022-12-16T03:44:40;47.90;;;21.57;;
69410;SDS011;56604;48.652;9.194;2022-12-16T03:47:07;45.00;;;21.97;;
69410;SDS011;56604;48.652;9.194;2022-12-16T03:49:32;45.27;;;21.83;;
69410;SDS011;56604;48.652;9.194;2022-12-16T03:51:58;45.33;;;22.20;;
69410;SDS011;56604;48.652;9.194;2022-12-16T03:54:23;48.73;;;21.77;;
69410;SDS011;56604;48.652;9.194;2022-12-16T03:56:49;47.30;;;21.13;;
69410;SDS011;56604;48.652;9.194;2022-12-16T03:59:15;38.57;;;21.20;;
69410;SDS011;56604;48.652;9.194;2022-12-16T04:01:40;36.93;;;19.80;;
69410;SDS011;56604;48.652;9.194;2022-12-16T04:04:06;39.77;;;21.30;;
69410;SDS011;56604;48.652;9.194;2022-12-16T04:06:31;42.57;;;21.40;;
69410;SDS011;56604;48.652;9.194;2022-12-16T04:08:57;39.20;;;19.77;;
69410;SDS011;56604;48.652;9.194;2022-12-16T04:11:22;46.00;;;20.93;;
69410;SDS011;56604;48.652;9.194;2022-12-16T04:14:07;40.40;;;19.93;;
69410;SDS011;56604;48.652;9.194;2022-12-16T04:16:52;42.10;;;21.00;;
69410;SDS011;56604;48.652;9.194;2022-12-16T04:19:36;43.73;;;19.20;;
69410;SDS011;56604;48.652;9.194;2022-12-16T04:22:23;45.70;;;21.47;;
69410;SDS011;56604;48.652;9.194;2022-12-16T04:25:14;41.53;;;20.63;;
69410;SDS011;56604;48.652;9.194;2022-12-16T04:27:43;39.03;;;20.33;;
69410;SDS011;56604;48.652;9.194;2022-12-16T04:30:11;50.90;;;20.00;;
69410;SDS011;56604;48.652;9.194;2022-12-16T04:32:43;42.87;;;20.37;;
69410;SDS011;56604;48.652;9.194;2022-12-16T04:35:32;36.37;;;19.30;;
69410;SDS011;56604;48.652;9.194;2022-12-16T04:38:16;47.70;;;22.50;;
69410;SDS011;56604;48.652;9.194;2022-12-16T04:41:00;40.10;;;19.93;;
69410;SDS011;56604;48.652;9.194;2022-12-16T04:43:44;47.33;;;21.70;;
69410;SDS011;56604;48.652;9.194;2022-12-16T04:46:28;33.47;;;19.00;;
69410;SDS011;56604;48.652;9.194;2022-12-16T04:49:12;44.53;;;20.10;;
69410;SDS011;56604;48.652;9.194;2022-12-16T04:51:56;39.83;;;20.30;;
69410;SDS011;56604;48.652;9.194;2022-12-16T04:54:40;43.30;;;20.07;;
69410;SDS011;56604;48.652;9.194;2022-12-16T04:57:24;36.50;;;19.70;;
69410;SDS011;56604;48.652;9.194;2022-12-16T05:00:08;39.60;;;20.03;;
69410;SDS011;56604;48.652;9.194;2022-12-16T05:02:53;42.13;;;20.47;;
69410;SDS011;56604;48.652;9.194;2022-12-16T05:05:37;40.63;;;19.43;;
69410;SDS011;56604;48.652;9.194;2022-12-16T05:08:21;35.53;;;19.53;;
69410;SDS011;56604;48.652;9.194;2022-12-16T05:11:06;39.40;;;19.23;;
69410;SDS011;56604;48.652;9.194;2022-12-16T05:13:50;45.27;;;19.73;;
69410;SDS011;56604;48.652;9.194;2022-12-16T05:16:34;36.70;;;18.60;;
69410;SDS011;56604;48.652;9.194;2022-12-16T05:19:18;34.27;;;17.80;;
69410;SDS011;56604;48.652;9.194;2022-12-16T05:22:02;37.37;;;18.93;;
69410;SDS011;56604;48.652;9.194;2022-12-16T05:24:46;39.50;;;19.77;;
69410;SDS011;56604;48.652;9.194;2022-12-16T05:27:37;35.07;;;18.97;;
69410;SDS011;56604;48.652;9.194;2022-12-16T05:30:20;38.63;;;17.47;;
69410;SDS011;56604;48.652;9.194;2022-12-16T05:33:04;33.73;;;17.20;;
69410;SDS011;56604;48.652;9.194;2022-12-16T05:35:48;37.63;;;17.70;;
69410;SDS011;56604;48.652;9.194;2022-12-16T05:38:32;30.27;;;16.77;;
69410;SDS011;56604;48.652;9.194;2022-12-16T05:41:16;29.93;;;16.20;;
69410;SDS011;56604;48.652;9.194;2022-12-16T05:44:00;36.70;;;17.40;;
69410;SDS011;56604;48.652;9.194;2022-12-16T05:46:44;26.47;;;15.70;;
69410;SDS011;56604;48.652;9.194;2022-12-16T05:49:28;32.40;;;15.80;;
69410;SDS011;56604;48.652;9.194;2022-12-16T05:52:12;28.27;;;14.70;;
69410;SDS011;56604;48.652;9.194;2022-12-16T05:54:56;28.00;;;15.90;;
69410;SDS011;56604;48.652;9.194;2022-12-16T05:57:40;27.07;;;15.60;;
69410;SDS011;56604;48.652;9.194;2022-12-16T06:00:35;32.47;;;17.07;;
69410;SDS011;56604;48.652;9.194;2022-12-16T06:03:20;30.70;;;16.90;;
69410;SDS011;56604;48.652;9.194;2022-12-16T06:06:05;30.67;;;15.47;;
69410;SDS011;56604;48.652;9.194;2022-12-16T06:08:49;34.53;;;17.70;;
69410;SDS011;56604;48.652;9.194;2022-12-16T06:11:32;31.47;;;14.50;;
69410;SDS011;56604;48.652;9.194;2022-12-16T06:14:17;30.90;;;15.07;;
69410;SDS011;56604;48.652;9.194;2022-12-16T06:17:01;31.33;;;15.80;;
69410;SDS011;56604;48.652;9.194;2022-12-16T06:19:44;30.03;;;15.47;;
69410;SDS011;56604;48.652;9.194;2022-12-16T06:22:28;34.07;;;15.43;;
69410;SDS011;56604;48.652;9.194;2022-12-16T06:25:12;33.93;;;15.60;;
69410;SDS011;56604;48.652;9.194;2022-12-16T06:27:56;23.40;;;14.30;;
69410;SDS011;56604;48.652;9.194;2022-12-16T06:30:40;28.60;;;14.67;;
69410;SDS011;56604;48.652;9.194;2022-12-16T06:33:24;36.63;;;15.80;;
69410;SDS011;56604;48.652;9.194;2022-12-16T06:36:08;29.23;;;14.43;;
69410;SDS011;56604;48.652;9.194;2022-12-16T06:38:52;31.17;;;14.70;;
69410;SDS011;56604;48.652;9.194;2022-12-16T06:41:36;28.73;;;15.30;;
69410;SDS011;56604;48.652;9.194;2022-12-16T06:44:20;32.73;;;16.70;;
69410;SDS011;56604;48.652;9.194;2022-12-16T06:47:04;25.60;;;13.30;;
69410;SDS011;56604;48.652;9.194;2022-12-16T06:49:55;30.70;;;14.50;;
69410;SDS011;56604;48.652;9.194;2022-12-16T06:52:40;26.17;;;13.13;;
69410;SDS011;56604;48.652;9.194;2022-12-16T06:55:25;22.40;;;13.37;;
69410;SDS011;56604;48.652;9.194;2022-12-16T06:58:09;23.60;;;12.27;;
69410;SDS011;56604;48.652;9.194;2022-12-16T07:00:54;23.33;;;13.23;;
69410;SDS011;56604;48.652;9.194;2022-12-16T07:03:37;25.47;;;14.03;;
69410;SDS011;56604;48.652;9.194;2022-12-16T07:06:22;22.93;;;12.63;;
69410;SDS011;56604;48.652;9.194;2022-12-16T07:09:06;20.93;;;12.00;;
69410;SDS011;56604;48.652;9.194;2022-12-16T07:11:50;25.13;;;13.00;;
69410;SDS011;56604;48.652;9.194;2022-12-16T07:14:34;25.53;;;14.00;;
69410;SDS011;56604;48.652;9.194;2022-12-16T07:17:18;25.10;;;13.73;;
69410;SDS011;56604;48.652;9.194;2022-12-16T07:20:02;20.30;;;11.90;;
69410;SDS011;56604;48.652;9.194;2022-12-16T07:22:45;22.07;;;11.87;;
69410;SDS011;56604;48.652;9.194;2022-12-16T07:25:30;24.03;;;13.73;;
69410;SDS011;56604;48.652;9.194;2022-12-16T07:28:14;26.83;;;13.23;;
69410;SDS011;56604;48.652;9.194;2022-12-16T07:30:58;24.10;;;12.10;;
69410;SDS011;56604;48.652;9.194;2022-12-16T07:33:42;29.60;;;12.63;;
69410;SDS011;56604;48.652;9.194;2022-12-16T07:36:26;24.13;;;13.10;;
69410;SDS011;56604;48.652;9.194;2022-12-16T07:39:10;29.13;;;12.87;;
69410;SDS011;56604;48.652;9.194;2022-12-16T07:41:54;24.90;;;12.23;;
69410;SDS011;56604;48.652;9.194;2022-12-16T07:44:38;29.73;;;12.30;;
69410;SDS011;56604;48.652;9.194;2022-12-16T07:47:21;20.30;;;12.20;;
69410;SDS011;56604;48.652;9.194;2022-12-16T07:50:05;20.87;;;11.67;;
69410;SDS011;56604;48.652;9.194;2022-12-16T07:52:54;20.93;;;11.73;;
69410;SDS011;56604;48.652;9.194;2022-12-16T07:55:39;18.87;;;11.00;;
69410;SDS011;56604;48.652;9.194;2022-12-16T07:58:23;20.27;;;11.40;;
69410;SDS011;56604;48.652;9.194;2022-12-16T08:01:06;25.00;;;11.10;;
69410;SDS011;56604;48.652;9.194;2022-12-16T08:03:51;20.30;;;11.70;;
69410;SDS011;56604;48.652;9.194;2022-12-16T08:06:34;16.50;;;9.27;;
69410;SDS011;56604;48.652;9.194;2022-12-16T08:09:19;15.03;;;9.53;;
69410;SDS011;56604;48.652;9.194;2022-12-16T08:12:03;18.80;;;10.50;;
69410;SDS011;56604;48.652;9.194;2022-12-16T08:14:47;18.13;;;9.80;;
69410;SDS011;56604;48.652;9.194;2022-12-16T08:17:31;23.90;;;12.40;;
69410;SDS011;56604;48.652;9.194;2022-12-16T08:20:15;17.30;;;10.30;;
69410;SDS011;56604;48.652;9.194;2022-12-16T08:22:59;19.63;;;9.10;;
69410;SDS011;56604;48.652;9.194;2022-12-16T08:25:43;18.30;;;9.77;;
69410;SDS011;56604;48.652;9.194;2022-12-16T08:28:27;29.13;;;13.67;;
69410;SDS011;56604;48.652;9.194;2022-12-16T08:31:11;15.43;;;9.60;;
69410;SDS011;56604;48.652;9.194;2022-12-16T08:33:55;15.77;;;9.20;;
69410;SDS011;56604;48.652;9.194;2022-12-16T08:36:39;17.13;;;9.60;;
69410;SDS011;56604;48.652;9.194;2022-12-16T08:39:23;19.47;;;10.37;;
69410;SDS011;56604;48.652;9.194;2022-12-16T08:42:07;18.63;;;9.83;;
69410;SDS011;56604;48.652;9.194;2022-12-16T08:44:51;15.80;;;10.17;;
69410;SDS011;56604;48.652;9.194;2022-12-16T08:47:35;15.93;;;8.50;;
69410;SDS011;56604;48.652;9.194;2022-12-16T08:50:19;16.97;;;9.23;;
69410;SDS011;56604;48.652;9.194;2022-12-16T08:53:03;16.07;;;9.10;;
69410;SDS011;56604;48.652;9.194;2022-12-16T08:55:47;18.17;;;10.03;;
69410;SDS011;56604;48.652;9.194;2022-12-16T08:58:30;13.20;;;8.47;;
69410;SDS011;56604;48.652;9.194;2022-12-16T09:01:14;18.03;;;10.40;;
69410;SDS011;56604;48.652;9.194;2022-12-16T09:03:58;15.03;;;9.17;;
69410;SDS011;56604;48.652;9.194;2022-12-16T09:06:42;27.53;;;10.00;;
69410;SDS011;56604;48.652;9.194;2022-12-16T09:09:26;11.40;;;7.93;;
69410;SDS011;56604;48.652;9.194;2022-12-16T09:12:10;12.57;;;8.13;;
69410;SDS011;56604;48.652;9.194;2022-12-16T09:14:54;12.50;;;7.90;;
69410;SDS011;56604;48.652;9.194;2022-12-16T09:17:38;11.57;;;7.57;;
69410;SDS011;56604;48.652;9.194;2022-12-16T09:20:22;12.17;;;8.33;;
69410;SDS011;56604;48.652;9.194;2022-12-16T09:23:06;16.90;;;8.43;;
69410;SDS011;56604;48.652;9.194;2022-12-16T09:25:50;12.37;;;7.27;;
69410;SDS011;56604;48.652;9.194;2022-12-16T09:28:34;16.73;;;7.20;;
69410;SDS011;56604;48.652;9.194;2022-12-16T09:31:18;10.80;;;6.70;;
69410;SDS011;56604;48.652;9.194;2022-12-16T09:34:02;13.07;;;7.90;;
69410;SDS011;56604;48.652;9.194;2022-12-16T09:36:46;10.23;;;7.37;;
69410;SDS011;56604;48.652;9.194;2022-12-16T09:39:30;12.63;;;7.40;;
69410;SDS011;56604;48.652;9.194;2022-12-16T09:48:46;10.23;;;7.40;;
69410;SDS011;56604;48.652;9.194;2022-12-16T09:51:33;15.60;;;8.73;;
69410;SDS011;56604;48.652;9.194;2022-12-16T09:54:20;12.97;;;8.13;;
69410;SDS011;56604;48.652;9.194;2022-12-16T09:57:09;15.00;;;8.60;;
69410;SDS011;56604;48.652;9.194;2022-12-16T09:59:58;15.03;;;9.40;;
69410;SDS011;56604;48.652;9.194;2022-12-16T10:02:46;14.60;;;7.97;;
69410;SDS011;56604;48.652;9.194;2022-12-16T10:05:42;19.90;;;9.23;;
69410;SDS011;56604;48.652;9.194;2022-12-16T10:11:54;9.20;;;6.80;;
69410;SDS011;56604;48.652;9.194;2022-12-16T10:14:59;18.10;;;8.30;;
69410;SDS011;56604;48.652;9.194;2022-12-16T10:17:47;19.63;;;8.97;;
69410;SDS011;56604;48.652;9.194;2022-12-16T10:20:43;10.80;;;7.60;;
69410;SDS011;56604;48.652;9.194;2022-12-16T10:23:53;9.87;;;6.93;;
69410;SDS011;56604;48.652;9.194;2022-12-16T10:26:52;14.63;;;7.70;;
69410;SDS011;56604;48.652;9.194;2022-12-16T10:29:44;8.30;;;6.13;;
69410;SDS011;56604;48.652;9.194;2022-12-16T10:35:18;13.53;;;6.20;;
69410;SDS011;56604;48.652;9.194;2022-12-16T10:38:06;9.40;;;6.63;;
69410;SDS011;56604;48.652;9.194;2022-12-16T10:41:00;10.83;;;6.43;;
69410;SDS011;56604;48.652;9.194;2022-12-16T10:43:45;7.40;;;5.70;;
69410;SDS011;56604;48.652;9.194;2022-12-16T10:46:32;9.80;;;6.73;;
69410;SDS011;56604;48.652;9.194;2022-12-16T10:49:18;9.20;;;6.20;;
69410;SDS011;56604;48.652;9.194;2022-12-16T10:52:02;11.60;;;6.60;;
69410;SDS011;56604;48.652;9.194;2022-12-16T10:54:53;9.00;;;6.30;;
69410;SDS011;56604;48.652;9.194;2022-12-16T10:57:54;10.40;;;6.80;;
69410;SDS011;56604;48.652;9.194;2022-12-16T11:00:49;20.00;;;7.90;;
69410;SDS011;56604;48.652;9.194;2022-12-16T11:03:35;9.03;;;6.00;;
69410;SDS011;56604;48.652;9.194;2022-12-16T11:06:22;18.37;;;10.83;;
69410;SDS011;56604;48.652;9.194;2022-12-16T11:09:19;10.50;;;6.80;;
69410;SDS011;56604;48.652;9.194;2022-12-16T11:12:16;8.30;;;6.00;;
69410;SDS011;56604;48.652;9.194;2022-12-16T11:15:24;14.33;;;6.70;;
69410;SDS011;56604;48.652;9.194;2022-12-16T11:18:19;8.30;;;5.87;;
69410;SDS011;56604;48.652;9.194;2022-12-16T11:21:05;9.83;;;6.50;;
69410;SDS011;56604;48.652;9.194;2022-12-16T11:24:13;12.20;;;6.20;;
69410;SDS011;56604;48.652;9.194;2022-12-16T11:27:21;11.30;;;6.40;;
69410;SDS011;56604;48.652;9.194;2022-12-16T11:30:14;16.23;;;7.23;;
69410;SDS011;56604;48.652;9.194;2022-12-16T11:33:03;14.10;;;6.97;;
69410;SDS011;56604;48.652;9.194;2022-12-16T11:35:55;15.70;;;6.53;;
69410;SDS011;56604;48.652;9.194;2022-12-16T11:38:48;11.17;;;7.27;;
69410;SDS011;56604;48.652;9.194;2022-12-16T11:44:28;8.20;;;6.00;;
69410;SDS011;56604;48.652;9.194;2022-12-16T11:50:20;10.53;;;7.23;;
69410;SDS011;56604;48.652;9.194;2022-12-16T11:53:51;8.87;;;5.63;;
69410;SDS011;56604;48.652;9.194;2022-12-16T11:56:22;10.07;;;5.93;;
69410;SDS011;56604;48.652;9.194;2022-12-16T11:59:11;9.23;;;6.10;;
69410;SDS011;56604;48.652;9.194;2022-12-16T12:02:10;13.80;;;6.00;;
69410;SDS011;56604;48.652;9.194;2022-12-16T12:05:01;8.90;;;6.60;;
69410;SDS011;56604;48.652;9.194;2022-12-16T12:11:27;12.10;;;6.80;;
69410;SDS011;56604;48.652;9.194;2022-12-16T12:23:20;9.63;;;6.13;;
69410;SDS011;56604;48.652;9.194;2022-12-16T12:26:16;15.20;;;8.00;;
69410;SDS011;56604;48.652;9.194;2022-12-16T12:29:22;10.77;;;7.17;;
69410;SDS011;56604;48.652;9.194;2022-12-16T12:38:09;18.03;;;6.33;;
69410;SDS011;56604;48.652;9.194;2022-12-16T12:41:14;11.07;;;7.03;;
69410;SDS011;56604;48.652;9.194;2022-12-16T12:44:09;12.67;;;6.70;;
69410;SDS011;56604;48.652;9.194;2022-12-16T12:47:16;9.30;;;5.73;;
69410;SDS011;56604;48.652;9.194;2022-12-16T12:50:03;10.47;;;6.30;;
69410;SDS011;56604;48.652;9.194;2022-12-16T12:55:58;9.47;;;5.93;;
69410;SDS011;56604;48.652;9.194;2022-12-16T12:59:11;7.33;;;5.73;;
69410;SDS011;56604;48.652;9.194;2022-12-16T13:02:02;9.50;;;6.03;;
69410;SDS011;56604;48.652;9.194;2022-12-16T13:04:54;7.33;;;5.77;;
69410;SDS011;56604;48.652;9.194;2022-12-16T13:07:38;6.07;;;5.30;;
69410;SDS011;56604;48.652;9.194;2022-12-16T13:16:00;9.53;;;5.77;;
69410;SDS011;56604;48.652;9.194;2022-12-16T13:18:46;10.73;;;6.20;;
69410;SDS011;56604;48.652;9.194;2022-12-16T13:27:22;7.70;;;5.63;;
69410;SDS011;56604;48.652;9.194;2022-12-16T13:33:20;11.00;;;7.10;;
69410;SDS011;56604;48.652;9.194;2022-12-16T13:36:12;7.93;;;6.10;;
69410;SDS011;56604;48.652;9.194;2022-12-16T13:39:00;10.93;;;7.37;;
69410;SDS011;56604;48.652;9.194;2022-12-16T13:42:00;9.27;;;6.13;;
69410;SDS011;56604;48.652;9.194;2022-12-16T13:44:55;10.20;;;6.83;;
69410;SDS011;56604;48.652;9.194;2022-12-16T13:53:31;8.07;;;6.17;;
69410;SDS011;56604;48.652;9.194;2022-12-16T13:56:25;8.90;;;6.37;;
69410;SDS011;56604;48.652;9.194;2022-12-16T13:59:17;5.93;;;5.17;;
69410;SDS011;56604;48.652;9.194;2022-12-16T14:05:16;9.00;;;6.30;;
69410;SDS011;56604;48.652;9.194;2022-12-16T14:08:20;9.17;;;6.57;;
69410;SDS011;56604;48.652;9.194;2022-12-16T14:11:11;10.80;;;6.77;;
69410;SDS011;56604;48.652;9.194;2022-12-16T14:14:12;7.17;;;5.20;;
69410;SDS011;56604;48.652;9.194;2022-12-16T14:17:03;13.63;;;5.70;;
69410;SDS011;56604;48.652;9.194;2022-12-16T14:22:55;15.27;;;6.83;;
69410;SDS011;56604;48.652;9.194;2022-12-16T14:25:44;10.40;;;6.90;;
69410;SDS011;56604;48.652;9.194;2022-12-16T14:28:35;14.00;;;6.40;;
69410;SDS011;56604;48.652;9.194;2022-12-16T14:34:12;14.70;;;8.97;;
69410;SDS011;56604;48.652;9.194;2022-12-16T14:43:12;11.00;;;7.57;;
69410;SDS011;56604;48.652;9.194;2022-12-16T14:45:58;11.20;;;7.03;;
69410;SDS011;56604;48.652;9.194;2022-12-16T14:48:44;11.77;;;7.10;;
69410;SDS011;56604;48.652;9.194;2022-12-16T14:51:33;11.40;;;7.43;;
69410;SDS011;56604;48.652;9.194;2022-12-16T14:54:25;11.23;;;7.23;;
69410;SDS011;56604;48.652;9.194;2022-12-16T14:57:23;9.97;;;7.10;;
69410;SDS011;56604;48.652;9.194;2022-12-16T15:06:03;11.40;;;7.30;;
69410;SDS011;56604;48.652;9.194;2022-12-16T15:08:55;35.00;;;7.90;;
69410;SDS011;56604;48.652;9.194;2022-12-16T15:11:44;9.43;;;6.77;;
69410;SDS011;56604;48.652;9.194;2022-12-16T15:14:30;8.20;;;6.20;;
69410;SDS011;56604;48.652;9.194;2022-12-16T15:17:21;12.97;;;6.67;;
69410;SDS011;56604;48.652;9.194;2022-12-16T15:20:15;12.50;;;6.80;;
69410;SDS011;56604;48.652;9.194;2022-12-16T15:23:03;15.17;;;6.70;;
69410;SDS011;56604;48.652;9.194;2022-12-16T15:25:58;12.83;;;7.20;;
69410;SDS011;56604;48.652;9.194;2022-12-16T15:28:42;9.43;;;6.00;;
69410;SDS011;56604;48.652;9.194;2022-12-16T15:31:31;8.73;;;6.03;;
69410;SDS011;56604;48.652;9.194;2022-12-16T15:37:03;9.67;;;6.57;;
69410;SDS011;56604;48.652;9.194;2022-12-16T15:39:47;7.80;;;6.17;;
69410;SDS011;56604;48.652;9.194;2022-12-16T15:42:31;13.53;;;7.70;;
69410;SDS011;56604;48.652;9.194;2022-12-16T15:48:22;16.60;;;8.83;;
69410;SDS011;56604;48.652;9.194;2022-12-16T15:51:21;17.67;;;9.50;;
69410;SDS011;56604;48.652;9.194;2022-12-16T15:54:22;11.27;;;7.60;;
69410;SDS011;56604;48.652;9.194;2022-12-16T16:00:24;9.60;;;6.53;;
69410;SDS011;56604;48.652;9.194;2022-12-16T16:03:15;11.33;;;7.17;;
69410;SDS011;56604;48.652;9.194;2022-12-16T16:06:16;7.47;;;6.33;;
69410;SDS011;56604;48.652;9.194;2022-12-16T16:09:14;15.03;;;7.87;;
69410;SDS011;56604;48.652;9.194;2022-12-16T16:12:07;10.70;;;7.60;;
69410;SDS011;56604;48.652;9.194;2022-12-16T16:14:52;13.93;;;6.10;;
69410;SDS011;56604;48.652;9.194;2022-12-16T16:17:36;10.00;;;6.80;;
69410;SDS011;56604;48.652;9.194;2022-12-16T16:20:21;14.00;;;5.83;;
69410;SDS011;56604;48.652;9.194;2022-12-16T16:23:05;10.40;;;6.80;;
69410;SDS011;56604;48.652;9.194;2022-12-16T16:25:48;13.30;;;7.43;;
69410;SDS011;56604;48.652;9.194;2022-12-16T16:28:33;10.03;;;6.70;;
69410;SDS011;56604;48.652;9.194;2022-12-16T16:31:17;8.27;;;5.63;;
69410;SDS011;56604;48.652;9.194;2022-12-16T16:34:01;8.77;;;6.50;;
69410;SDS011;56604;48.652;9.194;2022-12-16T16:36:47;6.80;;;5.97;;
69410;SDS011;56604;48.652;9.194;2022-12-16T16:39:36;10.97;;;5.87;;
69410;SDS011;56604;48.652;9.194;2022-12-16T16:42:20;7.93;;;5.87;;
69410;SDS011;56604;48.652;9.194;2022-12-16T16:45:07;13.87;;;5.90;;
69410;SDS011;56604;48.652;9.194;2022-12-16T16:48:11;9.57;;;6.30;;
69410;SDS011;56604;48.652;9.194;2022-12-16T16:50:58;10.10;;;6.40;;
69410;SDS011;56604;48.652;9.194;2022-12-16T16:53:50;10.93;;;6.23;;
69410;SDS011;56604;48.652;9.194;2022-12-16T16:56:34;8.73;;;6.37;;
69410;SDS011;56604;48.652;9.194;2022-12-16T16:59:21;8.17;;;5.67;;
69410;SDS011;56604;48.652;9.194;2022-12-16T17:02:14;8.30;;;6.00;;
69410;SDS011;56604;48.652;9.194;2022-12-16T17:05:00;6.53;;;5.83;;
69410;SDS011;56604;48.652;9.194;2022-12-16T17:07:44;7.27;;;6.10;;
69410;SDS011;56604;48.652;9.194;2022-12-16T17:10:30;7.97;;;6.27;;
69410;SDS011;56604;48.652;9.194;2022-12-16T17:13:14;11.87;;;7.00;;
69410;SDS011;56604;48.652;9.194;2022-12-16T17:15:58;10.27;;;6.60;;
69410;SDS011;56604;48.652;9.194;2022-12-16T17:18:42;7.03;;;6.10;;
69410;SDS011;56604;48.652;9.194;2022-12-16T17:21:26;8.10;;;5.93;;
69410;SDS011;56604;48.652;9.194;2022-12-16T17:24:10;7.40;;;5.60;;
69410;SDS011;56604;48.652;9.194;2022-12-16T17:26:54;12.07;;;6.17;;
69410;SDS011;56604;48.652;9.194;2022-12-16T17:29:38;10.47;;;6.63;;
69410;SDS011;56604;48.652;9.194;2022-12-16T17:32:22;14.03;;;8.23;;
69410;SDS011;56604;48.652;9.194;2022-12-16T17:35:06;9.90;;;6.60;;
69410;SDS011;56604;48.652;9.194;2022-12-16T17:37:52;14.73;;;6.37;;
69410;SDS011;56604;48.652;9.194;2022-12-16T17:40:36;12.27;;;7.10;;
69410;SDS011;56604;48.652;9.194;2022-12-16T17:43:20;10.40;;;6.07;;
69410;SDS011;56604;48.652;9.194;2022-12-16T17:46:05;10.63;;;6.50;;
69410;SDS011;56604;48.652;9.194;2022-12-16T17:48:53;12.70;;;7.70;;
69410;SDS011;56604;48.652;9.194;2022-12-16T17:51:39;14.10;;;8.17;;
69410;SDS011;56604;48.652;9.194;2022-12-16T17:54:23;17.83;;;8.47;;
69410;SDS011;56604;48.652;9.194;2022-12-16T17:57:08;17.60;;;9.83;;
69410;SDS011;56604;48.652;9.194;2022-12-16T17:59:52;15.00;;;8.37;;
69410;SDS011;56604;48.652;9.194;2022-12-16T18:02:36;10.37;;;7.17;;
69410;SDS011;56604;48.652;9.194;2022-12-16T18:05:39;16.63;;;8.90;;
69410;SDS011;56604;48.652;9.194;2022-12-16T18:08:40;18.87;;;9.20;;